createdAt,value
2023-06-07T08:57:43.908Z,17.04
2023-06-07T08:58:43.875Z,17.07
2023-06-07T08:59:43.880Z,17.04
2023-06-07T09:00:43.855Z,17.06
2023-06-07T09:01:43.929Z,17.13
2023-06-07T09:02:43.869Z,17.20
2023-06-07T09:03:43.849Z,17.26
2023-06-07T09:04:43.826Z,17.25
2023-06-07T09:05:43.821Z,17.26
2023-06-07T09:06:43.792Z,17.32
2023-06-07T09:07:43.810Z,17.36
2023-06-07T09:08:43.771Z,17.46
2023-06-07T09:09:43.751Z,17.51
2023-06-07T09:10:43.733Z,17.51
2023-06-07T09:11:43.787Z,17.51
2023-06-07T09:12:43.705Z,17.55
2023-06-07T09:13:43.716Z,17.63
2023-06-07T09:14:43.691Z,17.55
2023-06-07T09:15:43.685Z,17.59
2023-06-07T09:16:43.742Z,17.63
2023-06-07T09:17:43.799Z,17.67
2023-06-07T09:18:43.662Z,17.71
2023-06-07T09:19:43.620Z,17.78
2023-06-07T09:20:43.604Z,17.82
2023-06-07T09:21:43.584Z,17.88
2023-06-07T09:22:43.572Z,17.95
2023-06-07T09:23:43.621Z,18.04
2023-06-07T09:24:43.604Z,18.00
2023-06-07T09:25:43.549Z,18.03
2023-06-07T09:26:43.515Z,18.07
2023-06-07T09:27:43.511Z,18.09
2023-06-07T09:28:43.486Z,18.10
2023-06-07T09:29:43.517Z,18.15
2023-06-07T09:30:43.468Z,18.10
2023-06-07T09:31:43.479Z,18.09
2023-06-07T09:32:43.465Z,18.12
2023-06-07T09:33:43.425Z,18.13
2023-06-07T09:34:43.423Z,18.07
2023-06-07T09:35:43.415Z,17.97
2023-06-07T09:36:43.462Z,18.00
2023-06-07T09:37:43.381Z,18.04
2023-06-07T09:38:43.436Z,18.15
2023-06-07T09:39:43.393Z,18.31
2023-06-07T09:40:43.329Z,18.52
2023-06-07T09:41:43.326Z,18.74
2023-06-07T09:42:43.309Z,18.90
2023-06-07T09:43:43.293Z,19.02
2023-06-07T09:44:43.330Z,19.08
2023-06-07T09:45:43.276Z,19.10
2023-06-07T09:46:43.302Z,19.18
2023-06-07T09:47:43.289Z,19.18
2023-06-07T09:48:43.285Z,19.02
2023-06-07T09:49:43.306Z,19.08
2023-06-07T09:50:43.200Z,19.17
2023-06-07T09:51:43.189Z,19.24
2023-06-07T09:52:43.172Z,19.13
2023-06-07T09:53:43.215Z,19.11
2023-06-07T09:54:43.168Z,19.05
2023-06-07T09:55:43.160Z,19.01
2023-06-07T09:56:43.195Z,18.82
2023-06-07T09:57:43.169Z,18.73
2023-06-07T09:58:43.097Z,18.62
2023-06-07T09:59:43.141Z,18.55
2023-06-07T10:00:43.137Z,18.55
2023-06-07T10:01:43.275Z,18.47
2023-06-07T10:02:43.091Z,18.54
2023-06-07T10:03:43.091Z,18.58
2023-06-07T10:04:43.055Z,18.65
2023-06-07T10:05:43.008Z,18.65
2023-06-07T10:06:42.997Z,18.72
2023-06-07T10:07:42.995Z,18.77
2023-06-07T10:08:42.978Z,18.84
2023-06-07T10:09:42.995Z,18.94
2023-06-07T10:10:42.935Z,18.94
2023-06-07T10:11:42.973Z,18.91
2023-06-07T10:12:42.942Z,18.92
2023-06-07T10:13:42.924Z,18.86
2023-06-07T10:14:42.877Z,18.82
2023-06-07T10:15:42.865Z,18.83
2023-06-07T10:16:42.908Z,18.83
2023-06-07T10:17:42.938Z,18.84
2023-06-07T10:18:42.859Z,18.91
2023-06-07T10:19:42.822Z,18.97
2023-06-07T10:20:42.857Z,19.06
2023-06-07T10:21:42.827Z,19.11
2023-06-07T10:22:42.792Z,19.08
2023-06-07T10:23:42.868Z,19.08
2023-06-07T10:24:42.799Z,19.05
2023-06-07T10:25:42.779Z,19.01
2023-06-07T10:26:42.779Z,19.01
2023-06-07T10:27:42.706Z,19.01
2023-06-07T10:28:42.697Z,19.02
2023-06-07T10:29:42.700Z,19.05
2023-06-07T10:30:42.693Z,19.02
2023-06-07T10:31:42.763Z,19.01
2023-06-07T10:32:42.675Z,18.99
2023-06-07T10:33:42.670Z,19.01
2023-06-07T10:34:42.622Z,19.01
2023-06-07T10:35:42.613Z,19.05
2023-06-07T10:36:42.601Z,19.10
2023-06-07T10:37:42.576Z,19.02
2023-06-07T10:38:42.569Z,18.90
2023-06-07T10:39:42.576Z,18.82
2023-06-07T10:40:42.558Z,18.76
2023-06-07T10:41:42.545Z,18.79
2023-06-07T10:42:42.545Z,18.72
2023-06-07T10:43:42.509Z,18.73
2023-06-07T10:44:42.511Z,18.73
2023-06-07T10:45:42.570Z,18.72
2023-06-07T10:46:42.634Z,18.68
2023-06-07T10:47:42.594Z,18.68
2023-06-07T10:48:42.489Z,18.70
2023-06-07T10:49:42.454Z,18.72
2023-06-07T10:50:42.408Z,18.76
2023-06-07T10:51:42.611Z,18.86
2023-06-07T10:52:42.377Z,18.92
2023-06-07T10:53:42.359Z,18.90
2023-06-07T10:54:42.365Z,18.83
2023-06-07T10:55:42.365Z,18.91
2023-06-07T10:56:42.350Z,18.99
2023-06-07T10:57:42.365Z,19.08
2023-06-07T10:58:42.385Z,19.14
2023-06-07T10:59:42.307Z,19.05
2023-06-07T11:00:42.293Z,19.08
2023-06-07T11:01:42.353Z,19.15
2023-06-07T11:02:42.331Z,19.32
2023-06-07T11:03:42.354Z,19.53
2023-06-07T11:04:42.468Z,19.75
2023-06-07T11:05:42.243Z,19.95
2023-06-07T11:06:42.201Z,20.18
2023-06-07T11:07:42.174Z,20.34
2023-06-07T11:08:42.242Z,20.46
2023-06-07T11:09:42.150Z,20.49
2023-06-07T11:10:42.156Z,20.64
2023-06-07T11:11:42.124Z,20.79
2023-06-07T11:12:42.635Z,20.90
2023-06-07T11:13:42.105Z,20.81
2023-06-07T11:14:42.084Z,20.81
2023-06-07T11:15:42.188Z,20.90
2023-06-07T11:16:42.108Z,20.91
2023-06-07T11:17:42.125Z,21.04
2023-06-07T11:18:42.053Z,21.06
2023-06-07T11:19:42.043Z,21.16
2023-06-07T11:20:42.011Z,21.26
2023-06-07T11:21:41.991Z,21.38
2023-06-07T11:22:41.991Z,21.45
2023-06-07T11:23:42.028Z,21.69
2023-06-07T11:24:42.848Z,21.98
2023-06-07T11:25:41.945Z,22.41
2023-06-07T11:26:41.975Z,23.08
2023-06-07T11:27:41.924Z,23.77
2023-06-07T11:28:42.042Z,24.02
2023-06-07T11:29:41.949Z,23.97
2023-06-07T11:30:41.872Z,23.94
2023-06-07T11:31:41.910Z,23.86
2023-06-07T11:32:41.994Z,23.94
2023-06-07T11:33:41.847Z,23.87
2023-06-07T11:34:41.843Z,24.00
2023-06-07T11:35:41.812Z,24.29
2023-06-07T11:36:41.797Z,24.35
2023-06-07T11:37:41.789Z,24.20
2023-06-07T11:38:41.795Z,24.24
2023-06-07T11:39:41.746Z,23.87
2023-06-07T11:40:41.746Z,23.67
2023-06-07T11:41:41.746Z,23.62
2023-06-07T11:42:41.726Z,23.67
2023-06-07T11:43:41.704Z,23.65
2023-06-07T11:44:41.692Z,23.86
2023-06-07T11:45:41.689Z,23.97
2023-06-07T11:46:41.683Z,24.17
2023-06-07T11:47:41.771Z,24.22
2023-06-07T11:48:41.773Z,24.61
2023-06-07T11:49:41.620Z,24.83
2023-06-07T11:50:41.619Z,24.87
2023-06-07T11:51:41.608Z,24.73
2023-06-07T11:52:41.592Z,25.00
2023-06-07T11:53:41.573Z,25.35
2023-06-07T11:54:41.569Z,25.35
2023-06-07T11:55:41.583Z,25.24
2023-06-07T11:56:41.555Z,25.07
2023-06-07T11:57:41.524Z,24.87
2023-06-07T11:58:41.513Z,24.63
2023-06-07T11:59:41.509Z,24.45
2023-06-07T12:00:41.497Z,24.16
2023-06-07T12:01:41.490Z,24.01
2023-06-07T12:02:41.712Z,24.02
2023-06-07T12:03:44.034Z,24.16
2023-06-07T12:04:41.472Z,24.24
2023-06-07T12:05:41.437Z,24.32
2023-06-07T12:06:41.409Z,24.37
2023-06-07T12:07:41.393Z,24.38
2023-06-07T12:08:41.371Z,24.44
2023-06-07T12:09:41.369Z,24.52
2023-06-07T12:10:41.361Z,24.56
2023-06-07T12:11:41.338Z,24.52
2023-06-07T12:12:41.318Z,24.50
2023-06-07T12:13:41.308Z,24.54
2023-06-07T12:14:41.307Z,24.38
2023-06-07T12:15:41.330Z,24.59
2023-06-07T12:16:41.279Z,25.15
2023-06-07T12:17:41.270Z,25.72
2023-06-07T12:18:41.237Z,26.28
2023-06-07T12:19:41.232Z,26.77
2023-06-07T12:20:41.235Z,26.86
2023-06-07T12:21:41.222Z,26.76
2023-06-07T12:22:41.185Z,26.59
2023-06-07T12:23:41.194Z,26.46
2023-06-07T12:24:41.168Z,26.22
2023-06-07T12:25:41.335Z,26.09
2023-06-07T12:26:41.135Z,26.08
2023-06-07T12:27:41.130Z,25.83
2023-06-07T12:28:41.129Z,25.00
2023-06-07T12:29:41.120Z,24.41
2023-06-07T12:30:41.085Z,24.31
2023-06-07T12:31:41.152Z,24.32
2023-06-07T12:32:41.104Z,24.56
2023-06-07T12:33:41.054Z,24.68
2023-06-07T12:34:41.045Z,24.87
2023-06-07T12:35:41.126Z,25.00
2023-06-07T12:36:41.012Z,25.17
2023-06-07T12:37:41.004Z,25.27
2023-06-07T12:38:41.001Z,25.53
2023-06-07T12:39:40.987Z,25.75
2023-06-07T12:40:40.968Z,25.84
2023-06-07T12:41:40.952Z,25.68
2023-06-07T12:42:40.932Z,25.56
2023-06-07T12:43:40.937Z,25.61
2023-06-07T12:44:40.915Z,25.91
2023-06-07T12:45:41.006Z,26.20
2023-06-07T12:46:40.962Z,26.42
2023-06-07T12:47:40.905Z,26.76
2023-06-07T12:48:40.871Z,26.89
2023-06-07T12:49:40.862Z,27.05
2023-06-07T12:50:40.833Z,27.09
2023-06-07T12:51:40.825Z,26.91
2023-06-07T12:52:40.807Z,26.80
2023-06-07T12:53:40.813Z,26.91
2023-06-07T12:54:40.781Z,26.91
2023-06-07T12:55:40.779Z,27.10
2023-06-07T12:56:40.762Z,26.99
2023-06-07T12:57:40.750Z,27.32
2023-06-07T12:58:40.738Z,27.39
2023-06-07T12:59:40.741Z,27.10
2023-06-07T13:00:40.789Z,26.69
2023-06-07T13:01:40.731Z,26.15
2023-06-07T13:02:40.774Z,25.62
2023-06-07T13:03:40.747Z,25.35
2023-06-07T13:04:40.663Z,25.17
2023-06-07T13:05:40.651Z,25.02
2023-06-07T13:06:40.628Z,24.94
2023-06-07T13:07:40.659Z,25.01
2023-06-07T13:08:40.602Z,25.25
2023-06-07T13:09:40.591Z,25.52
2023-06-07T13:10:40.570Z,26.24
2023-06-07T13:11:40.565Z,26.50
2023-06-07T13:12:40.553Z,26.42
2023-06-07T13:13:40.540Z,25.97
2023-06-07T13:14:40.528Z,26.01
2023-06-07T13:15:40.524Z,26.42
2023-06-07T13:16:40.646Z,26.61
2023-06-07T13:17:40.632Z,26.58
2023-06-07T13:18:40.927Z,26.73
2023-06-07T13:19:40.505Z,26.42
2023-06-07T13:20:40.444Z,26.58
2023-06-07T13:21:40.459Z,26.87
2023-06-07T13:22:40.423Z,26.79
2023-06-07T13:23:40.440Z,26.49
2023-06-07T13:24:40.419Z,26.12
2023-06-07T13:25:40.393Z,25.75
2023-06-07T13:26:40.387Z,25.38
2023-06-07T13:27:40.361Z,25.25
2023-06-07T13:28:40.339Z,25.50
2023-06-07T13:29:40.342Z,26.08
2023-06-07T13:30:40.328Z,26.31
2023-06-07T13:31:40.361Z,26.73
2023-06-07T13:32:40.309Z,27.47
2023-06-07T13:33:40.277Z,27.23
2023-06-07T13:34:40.261Z,27.09
2023-06-07T13:35:47.323Z,26.95
2023-06-07T13:36:40.236Z,27.50
2023-06-07T13:37:40.297Z,27.47
2023-06-07T13:38:40.229Z,27.32
2023-06-07T13:39:40.193Z,27.02
2023-06-07T13:40:40.269Z,26.64
2023-06-07T13:41:40.198Z,26.35
2023-06-07T13:42:40.156Z,25.98
2023-06-07T13:44:40.218Z,25.84
2023-06-07T13:45:40.138Z,25.61
2023-06-07T13:46:40.190Z,25.43
2023-06-07T13:47:40.124Z,25.37
2023-06-07T13:48:40.173Z,25.25
2023-06-07T13:49:40.091Z,25.15
2023-06-07T13:50:40.073Z,25.12
2023-06-07T13:51:40.046Z,25.09
2023-06-07T13:52:40.028Z,25.12
2023-06-07T13:53:40.025Z,25.13
2023-06-07T13:54:40.017Z,25.13
2023-06-07T13:55:39.999Z,25.16
2023-06-07T13:56:40.062Z,25.22
2023-06-07T13:57:40.038Z,25.27
2023-06-07T13:58:39.953Z,25.13
2023-06-07T13:59:39.955Z,25.02
2023-06-07T14:00:39.918Z,24.98
2023-06-07T14:01:39.983Z,24.94
2023-06-07T14:02:40.177Z,24.90
2023-06-07T14:03:40.043Z,25.10
2023-06-07T14:04:40.044Z,26.01
2023-06-07T14:05:39.958Z,25.99
2023-06-07T14:06:39.845Z,26.36
2023-06-07T14:07:39.898Z,26.42
2023-06-07T14:08:39.834Z,26.50
2023-06-07T14:09:39.864Z,27.01
2023-06-07T14:10:39.793Z,27.77
2023-06-07T14:11:39.843Z,28.40
2023-06-07T14:12:39.778Z,28.41
2023-06-07T14:13:39.766Z,27.85
2023-06-07T14:14:39.741Z,27.74
2023-06-07T14:15:39.737Z,27.19
2023-06-07T14:16:39.766Z,26.72
2023-06-07T14:17:39.759Z,26.36
2023-06-07T14:18:39.707Z,26.12
2023-06-07T14:19:39.686Z,26.01
2023-06-07T14:20:39.661Z,26.50
2023-06-07T14:21:39.719Z,27.04
2023-06-07T14:22:39.642Z,27.62
2023-06-07T14:23:39.703Z,28.32
2023-06-07T14:24:39.608Z,28.77
2023-06-07T14:25:39.646Z,28.69
2023-06-07T14:26:39.597Z,28.63
2023-06-07T14:27:39.600Z,27.88
2023-06-07T14:28:39.579Z,27.33
2023-06-07T14:29:39.555Z,27.23
2023-06-07T14:30:39.538Z,26.62
2023-06-07T14:31:39.586Z,26.20
2023-06-07T14:32:39.586Z,25.97
2023-06-07T14:33:39.498Z,25.69
2023-06-07T14:34:39.492Z,25.56
2023-06-07T14:35:39.470Z,25.42
2023-06-07T14:36:42.493Z,24.88
2023-06-07T14:37:39.455Z,24.80
2023-06-07T14:38:39.434Z,24.75
2023-06-07T14:39:39.419Z,24.82
2023-06-07T14:40:39.430Z,24.95
2023-06-07T14:41:39.418Z,25.06
2023-06-07T14:42:39.407Z,25.05
2023-06-07T14:43:39.382Z,25.24
2023-06-07T14:44:39.362Z,25.35
2023-06-07T14:45:39.382Z,25.39
2023-06-07T14:46:39.339Z,25.24
2023-06-07T14:47:39.355Z,24.91
2023-06-07T14:48:39.317Z,24.60
2023-06-07T14:49:39.304Z,24.49
2023-06-07T14:50:39.280Z,24.35
2023-06-07T14:51:39.288Z,24.20
2023-06-07T14:52:39.254Z,24.23
2023-06-07T14:53:39.253Z,24.31
2023-06-07T14:54:39.243Z,24.37
2023-06-07T14:55:39.245Z,24.34
2023-06-07T14:56:39.216Z,24.56
2023-06-07T14:57:39.221Z,24.68
2023-06-07T14:58:39.199Z,24.80
2023-06-07T14:59:39.166Z,25.20
2023-06-07T15:00:39.179Z,25.35
2023-06-07T15:01:39.184Z,25.43
2023-06-07T15:02:39.202Z,25.38
2023-06-07T15:03:39.190Z,25.35
2023-06-07T15:04:39.114Z,25.35
2023-06-07T15:05:39.095Z,25.31
2023-06-07T15:06:39.102Z,24.95
2023-06-07T15:07:39.071Z,24.73
2023-06-07T15:08:39.059Z,24.45
2023-06-07T15:09:39.044Z,24.50
2023-06-07T15:10:39.050Z,24.32
2023-06-07T15:11:39.016Z,24.32
2023-06-07T15:12:38.997Z,24.38
2023-06-07T15:13:38.983Z,24.64
2023-06-07T15:14:38.995Z,25.53
2023-06-07T15:15:38.982Z,26.43
2023-06-07T15:16:39.005Z,27.05
2023-06-07T15:17:38.991Z,27.35
2023-06-07T15:18:38.976Z,27.39
2023-06-07T15:19:38.925Z,27.61
2023-06-07T15:20:38.895Z,27.92
2023-06-07T15:21:38.878Z,28.41
2023-06-07T15:22:38.920Z,28.90
2023-06-07T15:23:38.875Z,28.88
2023-06-07T15:24:38.865Z,28.44
2023-06-07T15:25:38.842Z,27.76
2023-06-07T15:26:38.820Z,27.53
2023-06-07T15:27:38.802Z,27.26
2023-06-07T15:28:38.828Z,26.84
2023-06-07T15:29:38.790Z,26.67
2023-06-07T15:30:38.765Z,26.67
2023-06-07T15:31:38.775Z,26.77
2023-06-07T15:32:38.839Z,26.55
2023-06-07T15:33:38.751Z,26.59
2023-06-07T15:34:38.716Z,26.37
2023-06-07T15:35:38.717Z,26.27
2023-06-07T15:36:38.689Z,26.20
2023-06-07T15:37:38.678Z,26.40
2023-06-07T15:38:38.832Z,26.61
2023-06-07T15:39:38.673Z,26.29
2023-06-07T15:40:38.638Z,26.25
2023-06-07T15:41:38.622Z,25.93
2023-06-07T15:42:38.666Z,25.50
2023-06-07T15:43:38.702Z,25.34
2023-06-07T15:44:38.590Z,25.24
2023-06-07T15:45:38.591Z,25.46
2023-06-07T15:46:39.459Z,25.27
2023-06-07T15:47:38.623Z,25.07
2023-06-07T15:48:38.552Z,24.97
2023-06-07T15:49:38.518Z,24.73
2023-06-07T15:50:38.518Z,24.61
2023-06-07T15:51:38.501Z,24.73
2023-06-07T15:52:38.532Z,24.71
2023-06-07T15:53:38.466Z,24.57
2023-06-07T15:54:38.461Z,24.32
2023-06-07T15:55:38.449Z,24.34
2023-06-07T15:56:38.433Z,24.56
2023-06-07T15:57:38.429Z,24.59
2023-06-07T15:58:38.403Z,24.59
2023-06-07T15:59:38.390Z,24.56
2023-06-07T16:00:43.696Z,24.38
2023-06-07T16:01:39.439Z,24.26
2023-06-07T16:02:38.376Z,24.13
2023-06-07T16:03:54.296Z,23.95
2023-06-07T16:04:39.410Z,23.92
2023-06-07T16:05:38.324Z,23.98
2023-06-07T16:06:38.380Z,23.92
2023-06-07T16:07:38.279Z,23.65
2023-06-07T16:08:38.293Z,23.52
2023-06-07T16:09:38.260Z,23.57
2023-06-07T16:10:38.244Z,23.58
2023-06-07T16:11:38.237Z,23.49
2023-06-07T16:12:38.220Z,23.50
2023-06-07T16:13:38.214Z,23.57
2023-06-07T16:14:38.196Z,23.67
2023-06-07T16:15:38.190Z,23.67
2023-06-07T16:16:38.231Z,23.76
2023-06-07T16:17:38.203Z,23.77
2023-06-07T16:18:38.182Z,23.85
2023-06-07T16:19:38.126Z,23.83
2023-06-07T16:20:38.130Z,23.87
2023-06-07T16:21:38.109Z,23.80
2023-06-07T16:22:38.114Z,23.82
2023-06-07T16:23:38.100Z,23.82
2023-06-07T16:24:40.705Z,23.77
2023-06-07T16:25:38.072Z,23.65
2023-06-07T16:26:38.036Z,23.58
2023-06-07T16:27:38.035Z,23.57
2023-06-07T16:28:38.021Z,23.53
2023-06-07T16:29:38.013Z,23.50
2023-06-07T16:30:40.852Z,23.45
2023-06-07T16:31:38.069Z,23.45
2023-06-07T16:32:37.988Z,23.42
2023-06-07T16:33:37.964Z,23.47
2023-06-07T16:34:37.965Z,23.52
2023-06-07T16:35:37.924Z,23.52
2023-06-07T16:36:37.898Z,23.47
2023-06-07T16:37:37.908Z,23.57
2023-06-07T16:38:37.885Z,23.61
2023-06-07T16:39:37.874Z,24.01
2023-06-07T16:40:37.863Z,24.14
2023-06-07T16:41:40.023Z,24.07
2023-06-07T16:42:37.820Z,23.92
2023-06-07T16:43:37.817Z,23.86
2023-06-07T16:44:37.805Z,23.85
2023-06-07T16:45:37.795Z,23.82
2023-06-07T16:46:37.788Z,23.85
2023-06-07T16:47:37.792Z,23.86
2023-06-07T16:48:37.752Z,23.85
2023-06-07T16:49:37.743Z,23.76
2023-06-07T16:50:37.715Z,23.76
2023-06-07T16:51:37.704Z,24.13
2023-06-07T16:52:37.687Z,24.29
2023-06-07T16:53:37.687Z,24.13
2023-06-07T16:54:37.665Z,24.02
2023-06-07T16:55:37.647Z,23.95
2023-06-07T16:56:37.638Z,23.92
2023-06-07T16:57:39.961Z,23.82
2023-06-07T16:58:37.617Z,23.72
2023-06-07T16:59:37.608Z,23.68
2023-06-07T17:00:37.584Z,23.72
2023-06-07T17:01:37.586Z,23.65
2023-06-07T17:02:37.684Z,23.53
2023-06-07T17:03:37.624Z,23.57
2023-06-07T17:04:37.552Z,23.62
2023-06-07T17:05:37.545Z,23.50
2023-06-07T17:06:37.523Z,23.50
2023-06-07T17:07:37.524Z,23.53
2023-06-07T17:08:37.730Z,23.49
2023-06-07T17:09:37.479Z,23.58
2023-06-07T17:10:37.508Z,23.52
2023-06-07T17:11:37.452Z,23.46
2023-06-07T17:12:37.458Z,23.46
2023-06-07T17:13:37.457Z,23.46
2023-06-07T17:14:37.415Z,23.49
2023-06-07T17:15:37.412Z,23.49
2023-06-07T17:16:37.401Z,23.55
2023-06-07T17:17:37.496Z,23.62
2023-06-07T17:18:37.364Z,23.67
2023-06-07T17:19:37.355Z,23.72
2023-06-07T17:20:37.339Z,23.77
2023-06-07T17:21:37.321Z,23.83
2023-06-07T17:22:37.308Z,23.82
2023-06-07T17:23:37.365Z,23.86
2023-06-07T17:24:37.281Z,23.95
2023-06-07T17:25:37.269Z,23.94
2023-06-07T17:26:37.255Z,24.19
2023-06-07T17:27:37.259Z,24.27
2023-06-07T17:28:37.231Z,24.34
2023-06-07T17:29:37.226Z,24.31
2023-06-07T17:30:37.193Z,24.22
2023-06-07T17:31:37.255Z,24.17
2023-06-07T17:32:37.229Z,24.17
2023-06-07T17:33:38.067Z,24.16
2023-06-07T17:34:37.146Z,24.14
2023-06-07T17:35:37.132Z,24.17
2023-06-07T17:36:37.144Z,24.35
2023-06-07T17:37:37.149Z,24.69
2023-06-07T17:38:37.094Z,24.87
2023-06-07T17:39:37.091Z,24.94
2023-06-07T17:40:37.062Z,25.10
2023-06-07T17:41:37.072Z,25.24
2023-06-07T17:42:37.045Z,25.31
2023-06-07T17:43:37.034Z,25.12
2023-06-07T17:44:37.018Z,24.95
2023-06-07T17:45:37.073Z,24.92
2023-06-07T17:46:37.101Z,24.95
2023-06-07T17:47:37.014Z,24.83
2023-06-07T17:48:36.964Z,24.76
2023-06-07T17:49:36.961Z,24.69
2023-06-07T17:50:45.977Z,24.64
2023-06-07T17:51:37.977Z,24.59
2023-06-07T17:52:36.915Z,24.54
2023-06-07T17:53:36.911Z,24.38
2023-06-07T17:54:36.893Z,24.19
2023-06-07T17:55:36.894Z,24.08
2023-06-07T17:56:36.878Z,23.94
2023-06-07T17:57:36.853Z,23.92
2023-06-07T17:58:36.837Z,23.83
2023-06-07T17:59:36.869Z,23.68
2023-06-07T18:00:36.823Z,23.61
2023-06-07T18:01:36.832Z,23.61
2023-06-07T18:02:36.892Z,23.57
2023-06-07T18:03:36.805Z,23.58
2023-06-07T18:04:36.786Z,23.67
2023-06-07T18:05:36.817Z,23.75
2023-06-07T18:06:36.736Z,23.67
2023-06-07T18:07:36.724Z,23.68
2023-06-07T18:08:36.716Z,23.70
2023-06-07T18:09:36.718Z,23.76
2023-06-07T18:10:36.691Z,23.80
2023-06-07T18:11:36.675Z,23.60
2023-06-07T18:12:36.658Z,23.38
2023-06-07T18:13:36.669Z,23.23
2023-06-07T18:14:36.647Z,23.09
2023-06-07T18:15:36.639Z,23.04
2023-06-07T18:16:36.696Z,22.94
2023-06-07T18:17:36.671Z,22.90
2023-06-07T18:18:36.616Z,22.94
2023-06-07T18:19:36.582Z,22.90
2023-06-07T18:20:36.562Z,22.84
2023-06-07T18:21:36.541Z,22.78
2023-06-07T18:22:36.538Z,22.80
2023-06-07T18:23:36.584Z,22.82
2023-06-07T18:24:36.506Z,22.75
2023-06-07T18:25:36.497Z,22.72
2023-06-07T18:26:36.475Z,22.69
2023-06-07T18:27:36.468Z,22.67
2023-06-07T18:28:36.462Z,22.65
2023-06-07T18:29:36.448Z,22.62
2023-06-07T18:30:36.424Z,22.64
2023-06-07T18:31:36.420Z,22.64
2023-06-07T18:32:36.492Z,22.62
2023-06-07T18:33:36.393Z,22.59
2023-06-07T18:34:36.373Z,22.59
2023-06-07T18:35:36.361Z,22.56
2023-06-07T18:36:36.342Z,22.53
2023-06-07T18:37:36.372Z,22.52
2023-06-07T18:38:36.320Z,22.47
2023-06-07T18:39:36.312Z,22.41
2023-06-07T18:40:36.298Z,22.34
2023-06-07T18:41:36.301Z,22.27
2023-06-07T18:42:36.288Z,22.25
2023-06-07T18:43:36.256Z,22.20
2023-06-07T18:44:36.250Z,22.20
2023-06-07T18:45:36.440Z,22.14
2023-06-07T18:46:36.322Z,22.16
2023-06-07T18:47:36.314Z,22.16
2023-06-07T18:48:36.205Z,22.13
2023-06-07T18:49:36.193Z,22.10
2023-06-07T18:50:36.178Z,22.10
2023-06-07T18:51:36.164Z,22.07
2023-06-07T18:52:36.160Z,22.06
2023-06-07T18:53:36.121Z,22.02
2023-06-07T18:54:36.117Z,22.01
2023-06-07T18:55:36.100Z,21.99
2023-06-07T18:56:36.107Z,21.98
2023-06-07T18:57:36.068Z,21.95
2023-06-07T18:58:36.056Z,21.91
2023-06-07T18:59:36.045Z,21.90
2023-06-07T19:00:36.072Z,21.83
2023-06-07T19:01:50.939Z,21.81
2023-06-07T19:02:37.233Z,21.81
2023-06-07T19:03:36.047Z,21.79
2023-06-07T19:04:36.017Z,21.74
2023-06-07T19:05:35.986Z,21.74
2023-06-07T19:06:35.987Z,21.71
2023-06-07T19:07:35.947Z,21.67
2023-06-07T19:08:35.941Z,21.63
2023-06-07T19:09:35.913Z,21.61
2023-06-07T19:10:35.916Z,21.56
2023-06-07T19:11:35.898Z,21.50
2023-06-07T19:12:35.868Z,21.45
2023-06-07T19:13:35.853Z,21.41
2023-06-07T19:14:35.875Z,21.41
2023-06-07T19:15:35.835Z,21.38
2023-06-07T19:16:35.835Z,21.35
2023-06-07T19:17:35.812Z,21.29
2023-06-07T19:18:35.797Z,21.23
2023-06-07T19:19:35.804Z,21.17
2023-06-07T19:20:35.785Z,21.16
2023-06-07T19:21:35.758Z,21.14
2023-06-07T19:22:35.737Z,21.08
2023-06-07T19:23:35.762Z,21.04
2023-06-07T19:24:35.725Z,20.99
2023-06-07T19:25:35.706Z,20.95
2023-06-07T19:26:35.735Z,20.91
2023-06-07T19:27:35.667Z,20.90
2023-06-07T19:28:35.669Z,20.87
2023-06-07T19:29:35.650Z,20.86
2023-06-07T19:30:35.682Z,20.83
2023-06-07T19:31:35.650Z,20.80
2023-06-07T19:32:35.636Z,20.77
2023-06-07T19:33:35.595Z,20.72
2023-06-07T19:34:35.604Z,20.72
2023-06-07T19:36:26.848Z,20.64
2023-06-07T19:37:26.816Z,20.58
2023-06-07T19:38:26.812Z,20.51
2023-06-07T19:39:26.799Z,20.49
2023-06-07T19:40:26.783Z,20.47
2023-06-07T19:41:26.769Z,20.39
2023-06-07T19:42:26.781Z,20.39
2023-06-07T19:43:26.754Z,20.35
2023-06-07T19:44:26.729Z,20.34
2023-06-07T19:45:26.720Z,20.31
2023-06-07T19:46:26.757Z,20.30
2023-06-07T19:47:26.699Z,20.27
2023-06-07T19:48:26.676Z,20.27
2023-06-07T19:49:26.679Z,20.24
2023-06-07T19:50:26.649Z,20.21
2023-06-07T19:51:26.700Z,20.20
2023-06-07T19:52:28.201Z,20.16
2023-06-07T19:53:26.624Z,20.18
2023-06-07T19:54:26.593Z,20.16
2023-06-07T19:55:26.584Z,20.18
2023-06-07T19:56:26.570Z,20.13
2023-06-07T19:57:26.585Z,20.10
2023-06-07T19:58:26.537Z,20.06
2023-06-07T19:59:26.541Z,20.03
2023-06-07T20:00:26.518Z,20.00
2023-06-07T20:01:26.570Z,19.97
2023-06-07T20:02:26.576Z,19.93
2023-06-07T20:03:26.525Z,19.87
2023-06-07T20:04:26.457Z,19.83
2023-06-07T20:05:26.459Z,19.78
2023-06-07T20:06:26.462Z,19.75
2023-06-07T20:07:26.448Z,19.70
2023-06-07T20:08:26.430Z,19.65
2023-06-07T20:09:26.411Z,19.60
2023-06-07T20:10:26.388Z,19.51
2023-06-07T20:11:26.391Z,19.47
2023-06-07T20:12:26.365Z,19.43
2023-06-07T20:13:26.367Z,19.39
2023-06-07T20:14:26.428Z,19.32
2023-06-07T20:15:26.321Z,19.24
2023-06-07T20:16:26.401Z,19.24
2023-06-07T20:17:26.320Z,19.18
2023-06-07T20:18:26.288Z,19.13
2023-06-07T20:19:26.282Z,19.11
2023-06-07T20:20:26.256Z,19.10
2023-06-07T20:21:26.260Z,19.02
2023-06-07T20:22:26.241Z,19.11
2023-06-07T20:23:26.266Z,19.11
2023-06-07T20:24:26.205Z,19.08
2023-06-07T20:25:26.212Z,19.05
2023-06-07T20:26:26.193Z,18.98
2023-06-07T20:27:26.186Z,18.99
2023-06-07T20:28:26.165Z,18.95
2023-06-07T20:29:26.146Z,18.91
2023-06-07T20:30:26.156Z,18.86
2023-06-07T20:31:26.135Z,18.77
2023-06-07T20:32:26.159Z,18.74
2023-06-07T20:33:26.128Z,18.70
2023-06-07T20:34:26.094Z,18.64
2023-06-07T20:35:26.153Z,18.62
2023-06-07T20:36:26.061Z,18.55
2023-06-07T20:37:26.063Z,18.49
2023-06-07T20:38:26.030Z,18.46
2023-06-07T20:39:26.043Z,18.42
2023-06-07T20:40:26.029Z,18.37
2023-06-07T20:41:25.993Z,18.36
2023-06-07T20:42:25.978Z,18.28
2023-06-07T20:43:25.962Z,18.24
2023-06-07T20:44:33.620Z,18.19
2023-06-07T20:45:26.973Z,18.15
2023-06-07T20:46:25.949Z,18.10
2023-06-07T20:47:25.937Z,18.07
2023-06-07T20:48:25.891Z,18.04
2023-06-07T20:49:25.897Z,18.02
2023-06-07T20:50:25.873Z,17.99
2023-06-07T20:51:25.861Z,17.95
2023-06-07T20:52:25.844Z,17.95
2023-06-07T20:53:25.860Z,17.92
2023-06-07T20:54:25.831Z,17.91
2023-06-07T20:55:25.825Z,17.89
2023-06-07T20:56:25.792Z,17.88
2023-06-07T20:57:25.793Z,17.85
2023-06-07T20:58:25.788Z,17.84
2023-06-07T20:59:25.777Z,17.84
